x

Stennis Test Facility (ostf1) Weather Station

8:50am - Thu 30th Jul 2015 All times are CDT. -5 hours from GMT.

  • Wind
    4mph, 9mph gusts
  • Air Temp 79°f
  • Sea Pressure 1016.7mb
  • Stennis Test Facility
  • Stennis Test Facility

More Historic Weather Station data

Upgrade to MSW Pro to gain access to the past 30 days of data for over 8000 Wavebouys and Weather Stations around the globe.

Join Pro

Comparision Forecast

View Surf forecast
   
Thu 07/30 8:50am 4 9 mph 1016.7mb 79f
7:50am  -  2 mph 1016.3mb 76f
6:50am  -  2 mph 1016mb 75f
5:50am 2
mph
1015.5mb 75f
4:50am 2 4 mph 1015.4mb 75f
3:50am  -  2 mph 1015.2mb 75f
2:50am  -  2 mph 1015.4mb 75f
1:50am  -  2 mph 1015.8mb 76f
12:50am 2 4 mph 1016mb 76f
Wed 07/29 11:50pm  -  2 mph 1016.3mb 76f
10:50pm  -  2 mph 1016.2mb 76f
9:50pm 2 4 mph 1016.9mb 76f
8:50pm  -  2 mph 1016.9mb 76f
7:50pm 2 7 mph 1017.1mb 76f
6:50pm 2 7 mph 1015.3mb 78f
5:50pm 9 18 mph 1015.1mb 80f
4:50pm 16 22 mph 1014.3mb 87f
3:50pm  -  mph 1014.2mb 93f
2:50pm 2 7 mph 1014.8mb 95f
1:50pm 4 9 mph 1015.4mb 95f
12:50pm 4 9 mph 1016.3mb 94f
10:50am 4 9 mph 1017.2mb 90f
9:50am 2 4 mph 1017.5mb 87f
8:50am 4 9 mph 1017.1mb 83f
7:50am 2 4 mph 1016.9mb 80f
6:50am  -  2 mph 1016.2mb 79f
5:50am  -  4 mph 1015.5mb 79f
4:50am  -  2 mph 1015.1mb 78f
3:50am  -  2 mph 1015.2mb 78f
2:50am  -  mph 1015mb 78f
1:50am  -  mph 1015.6mb 78f
12:50am  -  mph 1016.1mb 78f
Tue 07/28 11:50pm  -  mph 1016.1mb 78f
10:50pm  -  mph 1016mb 78f
9:50pm  -  2 mph 1015.6mb 78f
8:50pm  -  2 mph 1014.8mb 78f
7:50pm 2
mph
1014.8mb 79f
6:50pm  -  2 mph 1014.5mb 79f
5:50pm 2 7 mph 1015.2mb 87f
4:50pm 7 9 mph 1014.9mb 93f
3:50pm 7 11 mph 1015.3mb 94f
2:50pm 7 11 mph 1015.6mb 93f
1:50pm 4 9 mph 1016mb 94f
12:50pm 4 7 mph 1015.6mb 92f
11:50am 2 7 mph 1016mb 91f
10:50am 2 4 mph 1016.2mb 89f
9:50am 4 7 mph 1016.4mb 86f
8:50am 2 7 mph 1016.3mb 83f
7:50am  -  2 mph 1015.9mb 79f
6:50am  -  mph 1015.5mb 76f
5:50am  -  mph 1014.9mb 76f
4:50am  -  2 mph 1014.1mb 76f
3:50am  -  2 mph 1014.2mb 77f
2:50am  -  mph 1014.5mb 77f
1:50am  -  mph 1014.8mb 77f
12:50am  -  mph 1014.8mb 77f
Mon 07/27 11:50pm  -  mph 1014.7mb 78f
10:50pm  -  mph 1014.4mb 78f
9:50pm  -  mph 1013.8mb 79f
8:50pm  -  2 mph 1013.4mb 81f
7:50pm  -  mph 1013.6mb 83f
6:50pm 4 7 mph 1013.3mb 89f
5:50pm 4 9 mph 1013.4mb 91f
4:50pm 4 9 mph 1013.5mb 92f
3:50pm 4 9 mph 1013.8mb 92f
2:50pm 4 9 mph 1014.1mb 92f
1:50pm 4 7 mph 1014.3mb 92f
12:50pm 2 7 mph 1014.8mb 92f
11:50am 2 4 mph 1015.1mb 92f
10:50am 2 4 mph 1015.4mb 90f
9:50am 2 4 mph 1015.2mb 87f
8:50am  -  2 mph 1015.3mb 84f
7:50am  -  mph 1015mb 77f
6:50am  -  mph 1014.5mb 73f
5:50am  -  2 mph 1013.9mb 73f
4:50am  -  mph 1013mb 73f
3:50am  -  mph 1012.6mb 74f
2:50am  -  mph 1012.4mb 74f
1:50am  -  mph 1012.6mb 75f
12:50am  -  2 mph 1013mb 76f
Sun 07/26 11:50pm  -  2 mph 1013mb 76f
10:50pm  -  2 mph 1013.5mb 79f
9:50pm  -  2 mph 1013.4mb 82f
8:50pm  -  2 mph 1013.3mb 83f
7:50pm 2 4 mph 1012.9mb 85f
6:50pm 4 7 mph 1012.8mb 88f
5:50pm 2
mph
1012.1mb 88f
4:50pm  -  2 mph 1012.5mb 87f
3:50pm 4 9 mph 1013mb 87f
2:50pm 4 9 mph 1013.3mb 90f